createdAt,value
2022-08-28T00:00:30.892Z,101068.63
2022-08-28T00:02:58.056Z,101066.22
2022-08-28T00:05:27.534Z,101061.16
2022-08-28T00:07:54.175Z,101064.69
2022-08-28T00:10:22.572Z,101064.69
2022-08-28T00:12:50.621Z,101059.59
2022-08-28T00:15:27.393Z,101062.31
2022-08-28T00:17:55.157Z,101061.22
2022-08-28T00:20:23.211Z,101062.84
2022-08-28T00:22:49.997Z,101062.25
2022-08-28T00:25:18.073Z,101062.81
2022-08-28T00:27:53.478Z,101058.78
2022-08-28T00:30:34.164Z,101050.47
2022-08-28T00:33:13.842Z,101051.00
2022-08-28T00:35:42.170Z,101045.09
2022-08-28T00:38:10.513Z,101045.09
2022-08-28T00:40:38.977Z,101049.16
2022-08-28T00:43:08.054Z,101059.06
2022-08-28T00:45:39.544Z,101054.81
2022-08-28T00:48:06.933Z,101057.75
2022-08-28T00:50:59.084Z,101049.72
2022-08-28T00:53:32.787Z,101063.94
2022-08-28T00:56:04.082Z,101056.94
2022-08-28T00:58:33.958Z,101060.72
2022-08-28T01:01:00.717Z,101052.13
2022-08-28T01:03:28.432Z,101050.53
2022-08-28T01:05:55.581Z,101054.56
2022-08-28T01:08:22.937Z,101054.56
2022-08-28T01:10:54.166Z,101058.56
2022-08-28T01:13:24.182Z,101058.31
2022-08-28T01:15:51.442Z,101060.16
2022-08-28T01:18:19.508Z,101054.28
2022-08-28T01:21:20.111Z,101052.41
2022-08-28T01:23:58.121Z,101061.28
2022-08-28T01:26:27.760Z,101062.63
2022-08-28T01:28:55.644Z,101072.78
2022-08-28T01:31:22.298Z,101063.38
2022-08-28T01:33:49.016Z,101065.25
2022-08-28T01:36:15.785Z,101064.97
2022-08-28T01:38:45.512Z,101064.97
2022-08-28T01:41:14.069Z,101060.44
2022-08-28T01:43:41.729Z,101059.63
2022-08-28T01:46:09.999Z,101060.44
2022-08-28T01:48:39.502Z,101065.00
2022-08-28T01:51:07.124Z,101068.47
2022-08-28T01:53:34.558Z,101070.09
2022-08-28T01:56:05.599Z,101065.53
2022-08-28T01:58:37.448Z,101058.03
2022-08-28T02:01:10.613Z,101061.78
2022-08-28T02:03:37.230Z,101062.06
2022-08-28T02:06:04.041Z,101061.00
2022-08-28T02:08:30.571Z,101064.19
2022-08-28T02:10:57.116Z,101059.34
2022-08-28T02:13:25.673Z,101062.81
2022-08-28T02:15:52.460Z,101065.50
2022-08-28T02:18:19.038Z,101070.06
2022-08-28T02:20:46.618Z,101069.53
2022-08-28T02:23:13.848Z,101071.38
2022-08-28T02:25:40.394Z,101067.84
2022-08-28T02:28:06.937Z,101073.97
2022-08-28T02:30:33.731Z,101071.53
2022-08-28T02:33:00.312Z,101070.50
2022-08-28T02:35:26.942Z,101069.75
2022-08-28T02:37:54.620Z,101065.44
2022-08-28T02:40:23.657Z,101064.91
2022-08-28T02:42:51.133Z,101058.19
2022-08-28T02:45:19.592Z,101057.94
2022-08-28T02:47:47.910Z,101064.34
2022-08-28T02:50:17.664Z,101070.06
2022-08-28T02:52:44.406Z,101072.38
2022-08-28T02:55:13.220Z,101074.78
2022-08-28T02:57:39.829Z,101078.81
2022-08-28T03:00:10.006Z,101074.25
2022-08-28T03:02:36.873Z,101070.75
2022-08-28T03:05:04.591Z,101077.22
2022-08-28T03:07:31.126Z,101073.41
2022-08-28T03:09:57.639Z,101071.28
2022-08-28T03:12:24.399Z,101073.94
2022-08-28T03:14:54.970Z,101077.97
2022-08-28T03:17:22.181Z,101078.47
2022-08-28T03:19:50.166Z,101077.97
2022-08-28T03:22:17.875Z,101077.13
2022-08-28T03:24:45.035Z,101078.13
2022-08-28T03:27:11.718Z,101078.69
2022-08-28T03:29:38.356Z,101080.28
2022-08-28T03:32:05.025Z,101078.66
2022-08-28T03:34:31.511Z,101076.53
2022-08-28T03:36:58.201Z,101076.78
2022-08-28T03:39:24.735Z,101078.94
2022-08-28T03:41:51.539Z,101073.56
2022-08-28T03:44:18.458Z,101074.06
2022-08-28T03:46:44.961Z,101080.03
2022-08-28T03:49:11.530Z,101072.47
2022-08-28T03:51:38.441Z,101067.69
2022-08-28T03:54:05.434Z,101069.50
2022-08-28T03:56:32.373Z,101069.78
2022-08-28T03:59:02.057Z,101067.28
2022-08-28T04:01:29.330Z,101056.63
2022-08-28T04:03:56.417Z,101061.47
2022-08-28T04:06:23.032Z,101057.59
2022-08-28T04:08:51.010Z,101075.97
2022-08-28T04:11:18.273Z,101067.16
2022-08-28T04:13:45.214Z,101078.56
2022-08-28T04:16:14.308Z,101063.41
2022-08-28T04:18:43.154Z,101062.78
2022-08-28T04:21:12.971Z,101066.59
2022-08-28T04:23:43.154Z,101064.38
2022-08-28T04:26:15.397Z,101066.25
2022-08-28T04:28:42.747Z,101067.16
2022-08-28T04:31:09.878Z,101057.03
2022-08-28T04:33:37.556Z,101063.47
2022-08-28T04:36:09.775Z,101072.47
2022-08-28T04:38:43.480Z,101061.88
2022-08-28T04:41:14.032Z,101077.41
2022-08-28T04:43:40.908Z,101080.13
2022-08-28T04:46:11.322Z,101092.38
2022-08-28T04:48:39.689Z,101087.25
2022-08-28T04:51:09.429Z,101093.94
2022-08-28T04:53:37.487Z,101097.13
2022-08-28T04:56:09.661Z,101094.41
2022-08-28T04:58:37.296Z,101093.72
2022-08-28T05:01:11.413Z,101099.88
2022-08-28T05:03:38.202Z,101104.97
2022-08-28T05:06:05.371Z,101101.53
2022-08-28T05:08:32.864Z,101104.75
2022-08-28T05:11:13.757Z,101097.75
2022-08-28T05:13:57.362Z,101102.00
2022-08-28T05:16:24.196Z,101107.09
2022-08-28T05:18:50.817Z,101111.00
2022-08-28T05:21:21.701Z,101116.91
2022-08-28T05:23:56.531Z,101118.38
2022-08-28T05:26:23.593Z,101116.78
2022-08-28T05:28:56.324Z,101121.34
2022-08-28T05:31:24.179Z,101120.25
2022-08-28T05:33:51.936Z,101110.91
2022-08-28T05:36:22.845Z,101112.22
2022-08-28T05:38:50.543Z,101114.16
2022-08-28T05:41:22.724Z,101108.56
2022-08-28T05:43:49.780Z,101112.34
2022-08-28T05:46:17.438Z,101126.00
2022-08-28T05:48:45.647Z,101126.97
2022-08-28T05:51:15.681Z,101114.88
2022-08-28T05:53:44.062Z,101116.91
2022-08-28T05:56:14.394Z,101117.19
2022-08-28T05:58:41.276Z,101125.19
2022-08-28T06:01:09.739Z,101127.59
2022-08-28T06:03:37.713Z,101134.56
2022-08-28T06:06:05.304Z,101131.69
2022-08-28T06:08:32.209Z,101129.94
2022-08-28T06:10:59.675Z,101125.88
2022-08-28T06:13:26.552Z,101134.81
2022-08-28T06:15:53.643Z,101130.75
2022-08-28T06:18:20.326Z,101143.06
2022-08-28T06:20:47.749Z,101147.38
2022-08-28T06:23:21.360Z,101143.63
2022-08-28T06:25:51.845Z,101154.84
2022-08-28T06:28:24.185Z,101156.53
2022-08-28T06:31:15.750Z,101147.69
2022-08-28T06:33:38.708Z,101153.13
2022-08-28T06:36:05.851Z,101156.47
2022-08-28T06:38:32.499Z,101153.44
2022-08-28T06:41:00.017Z,101149.16
2022-08-28T06:43:29.104Z,101146.78
2022-08-28T06:45:57.544Z,101149.19
2022-08-28T06:48:27.808Z,101152.41
2022-08-28T06:50:56.173Z,101158.56
2022-08-28T06:53:30.762Z,101169.03
2022-08-28T06:56:09.383Z,101174.97
2022-08-28T06:58:40.730Z,101166.66
2022-08-28T07:01:17.936Z,101174.75
2022-08-28T07:03:46.153Z,101164.28
2022-08-28T07:06:14.097Z,101168.06
2022-08-28T07:08:42.736Z,101169.97
2022-08-28T07:11:17.567Z,101169.66
2022-08-28T07:13:45.261Z,101165.38
2022-08-28T07:16:14.061Z,101164.88
2022-08-28T07:18:41.083Z,101168.91
2022-08-28T07:21:12.310Z,101173.47
2022-08-28T07:23:42.126Z,101173.47
2022-08-28T07:26:12.349Z,101181.78
2022-08-28T07:28:38.860Z,101179.88
2022-08-28T07:31:13.432Z,101177.19
2022-08-28T07:33:41.246Z,101180.41
2022-08-28T07:36:15.642Z,101184.66
2022-08-28T07:38:43.506Z,101182.75
2022-08-28T07:41:16.114Z,101178.66
2022-08-28T07:44:01.560Z,101189.88
2022-08-28T07:46:29.236Z,101182.59
2022-08-28T07:48:58.783Z,101193.25
2022-08-28T07:51:26.910Z,101182.47
2022-08-28T07:53:54.926Z,101191.72
2022-08-28T07:56:21.538Z,101193.25
2022-08-28T07:58:48.483Z,101192.09
2022-08-28T08:01:17.390Z,101199.59
2022-08-28T08:03:44.723Z,101208.09
2022-08-28T08:06:13.307Z,101211.75
2022-08-28T08:08:41.094Z,101208.16
2022-08-28T08:11:16.581Z,101211.09
2022-08-28T08:13:43.939Z,101200.91
2022-08-28T08:16:14.809Z,101203.84
2022-08-28T08:18:43.581Z,101202.06
2022-08-28T08:21:13.251Z,101203.25
2022-08-28T08:23:40.481Z,101197.03
2022-08-28T08:26:13.634Z,101204.78
2022-08-28T08:28:42.409Z,101203.94
2022-08-28T08:31:24.647Z,101200.78
2022-08-28T08:33:54.896Z,101197.84
2022-08-28T08:36:23.094Z,101201.69
2022-08-28T08:38:50.522Z,101200.41
2022-08-28T08:41:34.786Z,101201.91
2022-08-28T08:44:22.340Z,101207.03
2022-08-28T08:47:14.038Z,101206.81
2022-08-28T08:49:48.259Z,101200.31
2022-08-28T08:52:21.571Z,101202.06
2022-08-28T08:55:21.792Z,101195.81
2022-08-28T08:58:04.443Z,101194.03
2022-08-28T09:00:37.208Z,101188.22
2022-08-28T09:03:09.550Z,101191.63
2022-08-28T09:05:45.197Z,101194.41
2022-08-28T09:08:25.657Z,101192.81
2022-08-28T09:11:01.289Z,101201.06
2022-08-28T09:13:52.310Z,101193.66
2022-08-28T09:16:41.177Z,101200.13
2022-08-28T09:19:10.949Z,101199.59
2022-08-28T09:21:43.172Z,101195.47
2022-08-28T09:24:32.290Z,101197.75
2022-08-28T09:27:01.691Z,101199.72
2022-08-28T09:29:38.426Z,101194.31
2022-08-28T09:32:31.938Z,101197.44
2022-08-28T09:35:03.582Z,101191.25
2022-08-28T09:37:34.063Z,101194.03
2022-08-28T09:40:23.755Z,101184.16
2022-08-28T09:43:18.414Z,101184.56
2022-08-28T09:45:51.523Z,101191.16
2022-08-28T09:48:22.162Z,101189.22
2022-08-28T09:50:59.033Z,101189.97
2022-08-28T09:53:28.492Z,101183.41
2022-08-28T09:56:24.425Z,101182.06
2022-08-28T09:58:55.832Z,101186.31
2022-08-28T10:01:50.102Z,101193.72
2022-08-28T10:04:40.781Z,101194.38
2022-08-28T10:07:29.123Z,101185.47
2022-08-28T10:10:22.322Z,101192.63
2022-08-28T10:13:09.550Z,101193.53
2022-08-28T10:16:02.187Z,101189.66
2022-08-28T10:18:31.779Z,101192.00
2022-08-28T10:21:15.385Z,101191.13
2022-08-28T10:24:10.035Z,101191.63
2022-08-28T10:27:00.104Z,101193.88
2022-08-28T10:29:26.649Z,101193.34
2022-08-28T10:32:03.058Z,101188.44
2022-08-28T10:35:06.051Z,101200.19
2022-08-28T10:37:35.319Z,101195.78
2022-08-28T10:40:11.525Z,101188.69
2022-08-28T10:42:46.884Z,101187.66
2022-08-28T10:45:21.624Z,101189.00
2022-08-28T10:47:56.790Z,101195.56
2022-08-28T10:50:32.742Z,101182.56
2022-08-28T10:53:06.472Z,101182.75
2022-08-28T10:55:56.542Z,101187.88
2022-08-28T10:58:27.072Z,101189.28
2022-08-28T11:00:56.943Z,101191.69
2022-08-28T11:03:35.437Z,101189.44
2022-08-28T11:06:11.309Z,101194.91
2022-08-28T11:08:39.646Z,101186.50
2022-08-28T11:11:13.407Z,101198.81
2022-08-28T11:13:52.485Z,101186.28
2022-08-28T11:16:29.666Z,101187.22
2022-08-28T11:19:11.982Z,101179.16
2022-08-28T11:21:47.562Z,101182.81
2022-08-28T11:24:28.170Z,101188.56
2022-08-28T11:27:19.396Z,101185.75
2022-08-28T11:30:04.269Z,101188.25
2022-08-28T11:32:51.964Z,101174.03
2022-08-28T11:35:30.874Z,101183.66
2022-08-28T11:37:58.403Z,101189.50
2022-08-28T11:40:31.772Z,101183.31
2022-08-28T11:43:15.916Z,101180.34
2022-08-28T11:45:46.635Z,101178.31
2022-08-28T11:48:37.826Z,101187.75
2022-08-28T11:51:27.905Z,101178.03
2022-08-28T11:54:16.369Z,101177.84
2022-08-28T11:57:01.357Z,101181.84
2022-08-28T11:59:49.249Z,101187.19
2022-08-28T12:02:35.577Z,101180.84
2022-08-28T12:05:07.643Z,101178.41
2022-08-28T12:07:36.947Z,101175.19
2022-08-28T12:10:24.366Z,101173.84
2022-08-28T12:12:58.426Z,101169.63
2022-08-28T12:15:28.027Z,101164.66
2022-08-28T12:18:06.732Z,101172.66
2022-08-28T12:20:41.389Z,101169.03
2022-08-28T12:23:29.437Z,101156.72
2022-08-28T12:26:21.221Z,101168.00
2022-08-28T12:28:53.197Z,101164.34
2022-08-28T12:31:48.859Z,101167.41
2022-08-28T12:35:00.077Z,101167.44
2022-08-28T12:37:35.760Z,101164.88
2022-08-28T12:40:13.843Z,101157.56
2022-08-28T12:42:55.004Z,101155.16
2022-08-28T12:45:30.157Z,101155.47
2022-08-28T12:48:01.980Z,101153.72
2022-08-28T12:50:36.202Z,101148.34
2022-08-28T12:53:10.398Z,101153.69
2022-08-28T12:55:38.233Z,101150.19
2022-08-28T12:58:12.852Z,101147.34
2022-08-28T13:00:50.464Z,101146.44
2022-08-28T13:03:16.994Z,101147.69
2022-08-28T13:05:43.955Z,101140.91
2022-08-28T13:08:12.582Z,101136.06
2022-08-28T13:10:49.409Z,101128.06
2022-08-28T13:13:32.766Z,101123.00
2022-08-28T13:16:01.612Z,101123.03
2022-08-28T13:18:52.198Z,101134.41
2022-08-28T13:21:34.023Z,101138.50
2022-08-28T13:24:27.346Z,101141.28
2022-08-28T13:27:04.523Z,101132.03
2022-08-28T13:29:31.853Z,101123.97
2022-08-28T13:32:17.910Z,101124.31
2022-08-28T13:35:06.080Z,101127.41
2022-08-28T13:37:47.834Z,101119.44
2022-08-28T13:40:45.909Z,101120.78
2022-08-28T13:43:07.089Z,101107.63
2022-08-28T13:45:42.358Z,101114.91
2022-08-28T13:48:11.133Z,101117.66
2022-08-28T13:50:40.029Z,101113.78
2022-08-28T13:53:06.725Z,101112.78
2022-08-28T13:55:33.689Z,101108.84
2022-08-28T13:58:00.244Z,101102.31
2022-08-28T14:00:30.204Z,101099.97
2022-08-28T14:03:15.725Z,101098.94
2022-08-28T14:05:43.278Z,101092.31
2022-08-28T14:08:10.066Z,101099.59
2022-08-28T14:10:36.719Z,101092.25
2022-08-28T14:13:03.227Z,101086.13
2022-08-28T14:15:29.748Z,101095.38
2022-08-28T14:17:56.608Z,101085.06
2022-08-28T14:20:23.214Z,101088.88
2022-08-28T14:22:49.722Z,101084.53
2022-08-28T14:25:16.427Z,101082.81
2022-08-28T14:27:42.995Z,101081.88
2022-08-28T14:30:10.269Z,101078.78
2022-08-28T14:32:38.148Z,101083.06
2022-08-28T14:35:05.516Z,101088.72
2022-08-28T14:37:32.422Z,101089.06
2022-08-28T14:39:59.156Z,101088.66
2022-08-28T14:42:26.846Z,101085.47
2022-08-28T14:44:53.934Z,101086.84
2022-08-28T14:47:20.667Z,101083.50
2022-08-28T14:49:47.340Z,101078.22
2022-08-28T14:52:13.917Z,101083.97
2022-08-28T14:54:40.725Z,101078.41
2022-08-28T14:57:07.291Z,101084.19
2022-08-28T14:59:34.047Z,101083.00
2022-08-28T15:02:01.785Z,101083.88
2022-08-28T15:04:35.353Z,101084.06
2022-08-28T15:07:06.395Z,101082.94
2022-08-28T15:09:36.750Z,101090.03
2022-08-28T15:12:03.582Z,101084.19
2022-08-28T15:14:30.533Z,101095.59
2022-08-28T15:16:57.323Z,101088.31
2022-08-28T15:19:24.104Z,101088.41
2022-08-28T15:21:53.725Z,101099.34
2022-08-28T15:24:22.891Z,101094.66
2022-08-28T15:26:49.486Z,101092.13
2022-08-28T15:29:16.625Z,101091.44
2022-08-28T15:31:48.054Z,101095.63
2022-08-28T15:34:21.704Z,101088.03
2022-08-28T15:36:55.125Z,101085.22
2022-08-28T15:39:43.734Z,101091.59
2022-08-28T15:42:11.386Z,101089.09
2022-08-28T15:44:37.927Z,101085.66
2022-08-28T15:47:07.654Z,101084.88
2022-08-28T15:49:46.923Z,101080.44
2022-08-28T15:52:18.250Z,101080.13
2022-08-28T15:54:44.809Z,101085.41
2022-08-28T15:57:11.462Z,101083.75
2022-08-28T15:59:49.394Z,101087.75
2022-08-28T16:02:18.082Z,101084.81
2022-08-28T16:04:44.712Z,101082.09
2022-08-28T16:07:11.283Z,101081.31
2022-08-28T16:09:37.881Z,101080.69
2022-08-28T16:12:05.219Z,101077.78
2022-08-28T16:14:34.652Z,101080.94
2022-08-28T16:17:05.554Z,101079.56
2022-08-28T16:19:32.751Z,101085.47
2022-08-28T16:21:59.270Z,101080.38
2022-08-28T16:24:25.826Z,101071.63
2022-08-28T16:26:52.373Z,101077.25
2022-08-28T16:29:18.943Z,101072.47
2022-08-28T16:31:47.968Z,101080.03
2022-08-28T16:34:15.753Z,101076.81
2022-08-28T16:36:48.231Z,101076.75
2022-08-28T16:39:15.131Z,101084.13
2022-08-28T16:41:43.174Z,101075.38
2022-08-28T16:44:09.856Z,101073.72
2022-08-28T16:46:36.391Z,101073.88
2022-08-28T16:49:03.857Z,101062.75
2022-08-28T16:51:30.405Z,101064.19
2022-08-28T16:53:56.971Z,101062.25
2022-08-28T16:56:24.984Z,101069.50
2022-08-28T16:58:53.228Z,101063.94
2022-08-28T17:01:21.539Z,101069.50
2022-08-28T17:03:52.445Z,101060.97
2022-08-28T17:06:29.386Z,101063.81
2022-08-28T17:08:57.367Z,101064.56
2022-08-28T17:11:26.065Z,101069.28
2022-08-28T17:13:52.647Z,101066.38
2022-08-28T17:16:20.484Z,101061.13
2022-08-28T17:18:52.417Z,101065.13
2022-08-28T17:21:38.331Z,101058.28
2022-08-28T17:24:05.163Z,101064.78
2022-08-28T17:26:31.654Z,101068.19
2022-08-28T17:28:58.267Z,101066.25
2022-08-28T17:31:24.933Z,101065.78
2022-08-28T17:33:51.597Z,101063.50
2022-08-28T17:36:32.638Z,101068.59
2022-08-28T17:39:05.613Z,101066.88
2022-08-28T17:41:33.443Z,101063.25
2022-08-28T17:44:01.485Z,101063.09
2022-08-28T17:46:28.528Z,101061.44
2022-08-28T17:48:56.197Z,101068.31
2022-08-28T17:51:42.823Z,101065.16
2022-08-28T17:54:18.887Z,101067.31
2022-08-28T17:56:46.430Z,101071.81
2022-08-28T17:59:14.366Z,101060.06
2022-08-28T18:01:42.414Z,101067.53
2022-08-28T18:04:09.171Z,101067.91
2022-08-28T18:06:36.181Z,101066.69
2022-08-28T18:09:04.437Z,101063.25
2022-08-28T18:11:31.090Z,101064.09
2022-08-28T18:13:59.790Z,101059.41
2022-08-28T18:16:31.186Z,101071.66
2022-08-28T18:18:59.493Z,101072.50
2022-08-28T18:21:26.283Z,101072.84
2022-08-28T18:23:52.970Z,101070.81
2022-08-28T18:26:19.779Z,101068.22
2022-08-28T18:28:46.748Z,101068.88
2022-08-28T18:31:13.668Z,101076.56
2022-08-28T18:33:40.750Z,101074.63
2022-08-28T18:36:09.822Z,101075.41
2022-08-28T18:38:36.997Z,101072.34
2022-08-28T18:41:05.150Z,101069.34
2022-08-28T18:43:32.130Z,101080.03
2022-08-28T18:45:59.787Z,101078.25
2022-08-28T18:48:26.418Z,101090.25
2022-08-28T18:50:52.923Z,101095.69
2022-08-28T18:53:21.666Z,101097.25
2022-08-28T18:55:51.086Z,101106.50
2022-08-28T18:58:19.429Z,101109.53
2022-08-28T19:00:45.936Z,101110.28
2022-08-28T19:03:12.547Z,101109.84
2022-08-28T19:05:39.566Z,101114.31
2022-08-28T19:08:06.354Z,101111.22
2022-08-28T19:10:34.850Z,101119.13
2022-08-28T19:13:03.256Z,101118.44
2022-08-28T19:15:31.311Z,101120.50
2022-08-28T19:18:00.278Z,101119.81
2022-08-28T19:20:28.263Z,101128.09
2022-08-28T19:22:58.706Z,101132.91
2022-08-28T19:25:29.243Z,101133.38
2022-08-28T19:27:59.018Z,101136.34
2022-08-28T19:30:27.085Z,101131.19
2022-08-28T19:32:53.842Z,101145.28
2022-08-28T19:35:24.215Z,101149.16
2022-08-28T19:37:54.363Z,101145.59
2022-08-28T19:40:21.786Z,101141.03
2022-08-28T19:42:49.816Z,101145.97
2022-08-28T19:45:16.840Z,101144.00
2022-08-28T19:47:43.359Z,101152.50
2022-08-28T19:50:12.205Z,101153.47
2022-08-28T19:52:39.920Z,101152.38
2022-08-28T19:55:07.499Z,101151.44
2022-08-28T19:57:34.860Z,101157.59
2022-08-28T20:00:02.153Z,101162.06
2022-08-28T20:02:29.564Z,101164.63
2022-08-28T20:04:56.367Z,101158.34
2022-08-28T20:07:25.011Z,101159.31
2022-08-28T20:09:52.199Z,101159.34
2022-08-28T20:12:19.567Z,101161.63
2022-08-28T20:14:46.704Z,101160.75
2022-08-28T20:17:14.082Z,101163.03
2022-08-28T20:19:41.254Z,101167.03
2022-08-28T20:22:07.986Z,101165.66
2022-08-28T20:24:34.950Z,101170.56
2022-08-28T20:27:01.465Z,101173.41
2022-08-28T20:29:28.110Z,101179.09
2022-08-28T20:31:54.633Z,101180.00
2022-08-28T20:34:21.510Z,101179.97
2022-08-28T20:36:48.962Z,101185.75
2022-08-28T20:39:16.267Z,101186.88
2022-08-28T20:41:44.424Z,101192.81
2022-08-28T20:44:13.486Z,101189.09
2022-08-28T20:46:42.191Z,101184.69
2022-08-28T20:49:14.115Z,101188.66
2022-08-28T20:51:56.575Z,101193.84
2022-08-28T20:54:26.312Z,101194.63
2022-08-28T20:56:54.167Z,101194.31
2022-08-28T20:59:22.043Z,101191.53
2022-08-28T21:01:52.122Z,101196.56
2022-08-28T21:04:19.553Z,101192.69
2022-08-28T21:06:48.992Z,101194.78
2022-08-28T21:09:16.369Z,101190.47
2022-08-28T21:11:44.021Z,101195.66
2022-08-28T21:14:11.092Z,101206.31
2022-08-28T21:16:39.680Z,101195.66
2022-08-28T21:19:15.653Z,101201.69
2022-08-28T21:21:44.156Z,101209.75
2022-08-28T21:24:12.982Z,101215.16
2022-08-28T21:26:49.119Z,101218.41
2022-08-28T21:29:19.690Z,101215.25
2022-08-28T21:31:48.299Z,101223.69
2022-08-28T21:34:15.479Z,101220.34
2022-08-28T21:36:50.138Z,101226.56
2022-08-28T21:39:20.628Z,101232.66
2022-08-28T21:41:47.980Z,101228.50
2022-08-28T21:44:14.705Z,101231.59
2022-08-28T21:46:41.325Z,101231.91
2022-08-28T21:49:08.034Z,101234.09
2022-08-28T21:51:34.625Z,101230.72
2022-08-28T21:54:01.261Z,101233.44
2022-08-28T21:56:28.933Z,101230.94
2022-08-28T21:58:56.552Z,101232.59
2022-08-28T22:01:25.949Z,101236.63
2022-08-28T22:03:54.294Z,101237.16
2022-08-28T22:06:23.152Z,101249.31
2022-08-28T22:08:51.171Z,101246.31
2022-08-28T22:11:21.023Z,101251.84
2022-08-28T22:13:51.639Z,101250.69
2022-08-28T22:16:18.318Z,101259.97
2022-08-28T22:18:44.896Z,101259.56
2022-08-28T22:21:35.329Z,101260.28
2022-08-28T22:24:02.104Z,101263.50
2022-08-28T22:26:29.366Z,101267.47
2022-08-28T22:28:56.250Z,101262.03
2022-08-28T22:31:23.300Z,101270.28
2022-08-28T22:33:50.463Z,101259.81
2022-08-28T22:36:17.514Z,101258.00
2022-08-28T22:38:45.687Z,101264.41
2022-08-28T22:41:20.285Z,101270.22
2022-08-28T22:43:48.307Z,101256.72
2022-08-28T22:46:18.771Z,101268.84
2022-08-28T22:48:46.095Z,101268.56
2022-08-28T22:51:15.567Z,101263.00
2022-08-28T22:53:43.798Z,101269.59
2022-08-28T22:56:11.551Z,101269.31
2022-08-28T22:58:38.669Z,101268.16
2022-08-28T23:01:11.160Z,101271.50
2022-08-28T23:03:39.644Z,101272.19
2022-08-28T23:06:06.790Z,101269.63
2022-08-28T23:08:34.165Z,101268.22
2022-08-28T23:11:01.277Z,101270.44
2022-08-28T23:13:29.576Z,101272.84
2022-08-28T23:15:56.781Z,101276.97
2022-08-28T23:18:23.297Z,101279.72
2022-08-28T23:20:50.738Z,101278.63
2022-08-28T23:23:19.084Z,101281.09
2022-08-28T23:25:45.909Z,101285.44
2022-08-28T23:28:12.853Z,101279.00
2022-08-28T23:30:43.923Z,101284.91
2022-08-28T23:33:23.275Z,101280.28
2022-08-28T23:35:51.357Z,101292.94
2022-08-28T23:38:18.207Z,101289.19
2022-08-28T23:40:44.847Z,101285.25
2022-08-28T23:43:11.960Z,101284.66
2022-08-28T23:45:40.583Z,101290.06
2022-08-28T23:48:07.797Z,101288.63
2022-08-28T23:50:35.793Z,101300.00
2022-08-28T23:53:03.905Z,101293.13
2022-08-28T23:55:30.983Z,101294.72
2022-08-28T23:58:00.202Z,101291.16
